sensor_id;sensor_type;location;lat;lon;timestamp;P1;durP1;ratioP1;P2;durP2;ratioP2
21917;SDS011;11123;49.882;8.662;2022-10-26T00:01:11;8.48;;;2.20;;
21917;SDS011;11123;49.882;8.662;2022-10-26T00:03:41;5.47;;;1.80;;
21917;SDS011;11123;49.882;8.662;2022-10-26T00:06:11;7.57;;;2.20;;
21917;SDS011;11123;49.882;8.662;2022-10-26T00:08:41;10.52;;;2.22;;
21917;SDS011;11123;49.882;8.662;2022-10-26T00:11:11;6.43;;;2.22;;
21917;SDS011;11123;49.882;8.662;2022-10-26T00:13:39;6.50;;;2.58;;
21917;SDS011;11123;49.882;8.662;2022-10-26T00:16:09;9.02;;;2.10;;
21917;SDS011;11123;49.882;8.662;2022-10-26T00:18:38;8.23;;;2.67;;
21917;SDS011;11123;49.882;8.662;2022-10-26T00:21:07;8.05;;;2.33;;
21917;SDS011;11123;49.882;8.662;2022-10-26T00:23:37;9.02;;;2.40;;
21917;SDS011;11123;49.882;8.662;2022-10-26T00:26:05;9.80;;;2.67;;
21917;SDS011;11123;49.882;8.662;2022-10-26T00:28:35;11.25;;;2.50;;
21917;SDS011;11123;49.882;8.662;2022-10-26T00:31:11;6.68;;;2.28;;
21917;SDS011;11123;49.882;8.662;2022-10-26T00:33:41;10.63;;;2.13;;
21917;SDS011;11123;49.882;8.662;2022-10-26T00:36:09;7.80;;;2.65;;
21917;SDS011;11123;49.882;8.662;2022-10-26T00:38:39;7.88;;;2.38;;
21917;SDS011;11123;49.882;8.662;2022-10-26T00:41:12;6.90;;;1.83;;
21917;SDS011;11123;49.882;8.662;2022-10-26T00:43:43;5.93;;;2.33;;
21917;SDS011;11123;49.882;8.662;2022-10-26T00:46:12;5.95;;;2.40;;
21917;SDS011;11123;49.882;8.662;2022-10-26T00:48:43;6.60;;;2.67;;
21917;SDS011;11123;49.882;8.662;2022-10-26T00:51:16;6.78;;;2.60;;
21917;SDS011;11123;49.882;8.662;2022-10-26T00:53:50;8.15;;;2.20;;
21917;SDS011;11123;49.882;8.662;2022-10-26T00:56:20;6.22;;;2.55;;
21917;SDS011;11123;49.882;8.662;2022-10-26T00:58:50;6.95;;;3.00;;
21917;SDS011;11123;49.882;8.662;2022-10-26T01:01:18;5.40;;;2.20;;
21917;SDS011;11123;49.882;8.662;2022-10-26T01:03:46;9.43;;;2.40;;
21917;SDS011;11123;49.882;8.662;2022-10-26T01:06:16;6.25;;;2.35;;
21917;SDS011;11123;49.882;8.662;2022-10-26T01:08:44;6.50;;;2.55;;
21917;SDS011;11123;49.882;8.662;2022-10-26T01:11:13;16.08;;;2.55;;
21917;SDS011;11123;49.882;8.662;2022-10-26T01:13:42;8.23;;;2.45;;
21917;SDS011;11123;49.882;8.662;2022-10-26T01:16:24;9.43;;;2.20;;
21917;SDS011;11123;49.882;8.662;2022-10-26T01:19:11;7.85;;;2.45;;
21917;SDS011;11123;49.882;8.662;2022-10-26T01:22:03;13.13;;;3.00;;
21917;SDS011;11123;49.882;8.662;2022-10-26T01:24:43;11.57;;;2.70;;
21917;SDS011;11123;49.882;8.662;2022-10-26T01:27:26;11.23;;;2.80;;
21917;SDS011;11123;49.882;8.662;2022-10-26T01:30:20;8.27;;;2.58;;
21917;SDS011;11123;49.882;8.662;2022-10-26T01:35:48;6.75;;;2.83;;
21917;SDS011;11123;49.882;8.662;2022-10-26T01:38:23;7.78;;;2.88;;
21917;SDS011;11123;49.882;8.662;2022-10-26T01:40:58;6.00;;;2.90;;
21917;SDS011;11123;49.882;8.662;2022-10-26T01:43:34;14.27;;;3.47;;
21917;SDS011;11123;49.882;8.662;2022-10-26T01:46:07;7.40;;;2.83;;
21917;SDS011;11123;49.882;8.662;2022-10-26T01:48:37;6.70;;;2.95;;
21917;SDS011;11123;49.882;8.662;2022-10-26T01:51:07;9.48;;;2.60;;
21917;SDS011;11123;49.882;8.662;2022-10-26T01:53:40;8.40;;;2.33;;
21917;SDS011;11123;49.882;8.662;2022-10-26T01:56:12;6.93;;;2.30;;
21917;SDS011;11123;49.882;8.662;2022-10-26T02:01:52;7.10;;;2.53;;
21917;SDS011;11123;49.882;8.662;2022-10-26T02:04:56;6.47;;;2.38;;
21917;SDS011;11123;49.882;8.662;2022-10-26T02:07:39;5.32;;;2.30;;
21917;SDS011;11123;49.882;8.662;2022-10-26T02:10:20;7.45;;;2.50;;
21917;SDS011;11123;49.882;8.662;2022-10-26T02:12:58;7.28;;;2.55;;
21917;SDS011;11123;49.882;8.662;2022-10-26T02:15:34;9.93;;;2.40;;
21917;SDS011;11123;49.882;8.662;2022-10-26T02:18:12;7.70;;;2.70;;
21917;SDS011;11123;49.882;8.662;2022-10-26T02:20:50;6.47;;;2.47;;
21917;SDS011;11123;49.882;8.662;2022-10-26T02:23:21;6.85;;;2.53;;
21917;SDS011;11123;49.882;8.662;2022-10-26T02:25:54;6.15;;;2.65;;
21917;SDS011;11123;49.882;8.662;2022-10-26T02:28:26;7.32;;;2.83;;
21917;SDS011;11123;49.882;8.662;2022-10-26T02:30:59;8.88;;;2.78;;
21917;SDS011;11123;49.882;8.662;2022-10-26T02:33:32;9.57;;;3.15;;
21917;SDS011;11123;49.882;8.662;2022-10-26T02:36:06;8.70;;;2.60;;
21917;SDS011;11123;49.882;8.662;2022-10-26T02:38:37;11.20;;;2.40;;
21917;SDS011;11123;49.882;8.662;2022-10-26T02:41:08;4.00;;;2.20;;
21917;SDS011;11123;49.882;8.662;2022-10-26T02:43:40;7.20;;;2.63;;
21917;SDS011;11123;49.882;8.662;2022-10-26T02:46:12;6.25;;;2.50;;
21917;SDS011;11123;49.882;8.662;2022-10-26T02:48:44;5.88;;;2.38;;
21917;SDS011;11123;49.882;8.662;2022-10-26T02:51:15;10.05;;;2.67;;
21917;SDS011;11123;49.882;8.662;2022-10-26T02:53:48;7.03;;;2.55;;
21917;SDS011;11123;49.882;8.662;2022-10-26T02:56:21;7.93;;;2.60;;
21917;SDS011;11123;49.882;8.662;2022-10-26T02:58:56;10.30;;;2.92;;
21917;SDS011;11123;49.882;8.662;2022-10-26T03:01:28;6.60;;;2.40;;
21917;SDS011;11123;49.882;8.662;2022-10-26T03:04:00;9.35;;;2.80;;
21917;SDS011;11123;49.882;8.662;2022-10-26T03:06:28;9.27;;;3.30;;
21917;SDS011;11123;49.882;8.662;2022-10-26T03:08:56;10.20;;;2.60;;
21917;SDS011;11123;49.882;8.662;2022-10-26T03:11:25;9.82;;;2.85;;
21917;SDS011;11123;49.882;8.662;2022-10-26T03:13:53;9.57;;;2.83;;
21917;SDS011;11123;49.882;8.662;2022-10-26T03:16:21;9.77;;;3.00;;
21917;SDS011;11123;49.882;8.662;2022-10-26T03:18:50;6.43;;;2.58;;
21917;SDS011;11123;49.882;8.662;2022-10-26T03:21:19;10.85;;;3.22;;
21917;SDS011;11123;49.882;8.662;2022-10-26T03:23:47;8.40;;;2.58;;
21917;SDS011;11123;49.882;8.662;2022-10-26T03:26:15;7.10;;;2.78;;
21917;SDS011;11123;49.882;8.662;2022-10-26T03:28:44;7.88;;;2.55;;
21917;SDS011;11123;49.882;8.662;2022-10-26T03:31:12;7.10;;;2.35;;
21917;SDS011;11123;49.882;8.662;2022-10-26T03:33:40;6.70;;;2.67;;
21917;SDS011;11123;49.882;8.662;2022-10-26T03:36:08;10.23;;;2.90;;
21917;SDS011;11123;49.882;8.662;2022-10-26T03:38:38;6.88;;;2.13;;
21917;SDS011;11123;49.882;8.662;2022-10-26T03:41:06;7.95;;;2.63;;
21917;SDS011;11123;49.882;8.662;2022-10-26T03:43:35;11.05;;;3.00;;
21917;SDS011;11123;49.882;8.662;2022-10-26T03:46:03;7.57;;;2.97;;
21917;SDS011;11123;49.882;8.662;2022-10-26T03:48:31;9.77;;;3.13;;
21917;SDS011;11123;49.882;8.662;2022-10-26T03:50:59;5.15;;;2.42;;
21917;SDS011;11123;49.882;8.662;2022-10-26T03:53:27;9.70;;;2.92;;
21917;SDS011;11123;49.882;8.662;2022-10-26T03:55:56;7.57;;;2.65;;
21917;SDS011;11123;49.882;8.662;2022-10-26T03:58:24;8.18;;;2.72;;
21917;SDS011;11123;49.882;8.662;2022-10-26T04:00:53;10.90;;;3.20;;
21917;SDS011;11123;49.882;8.662;2022-10-26T04:03:21;9.65;;;3.13;;
21917;SDS011;11123;49.882;8.662;2022-10-26T04:05:49;11.73;;;3.00;;
21917;SDS011;11123;49.882;8.662;2022-10-26T04:08:17;8.38;;;2.40;;
21917;SDS011;11123;49.882;8.662;2022-10-26T04:10:46;10.18;;;2.50;;
21917;SDS011;11123;49.882;8.662;2022-10-26T04:13:15;5.22;;;2.50;;
21917;SDS011;11123;49.882;8.662;2022-10-26T04:15:44;11.60;;;2.50;;
21917;SDS011;11123;49.882;8.662;2022-10-26T04:18:12;5.22;;;1.90;;
21917;SDS011;11123;49.882;8.662;2022-10-26T04:20:40;6.10;;;2.20;;
21917;SDS011;11123;49.882;8.662;2022-10-26T04:23:10;6.03;;;1.83;;
21917;SDS011;11123;49.882;8.662;2022-10-26T04:25:40;8.40;;;2.15;;
21917;SDS011;11123;49.882;8.662;2022-10-26T04:28:10;7.13;;;2.20;;
21917;SDS011;11123;49.882;8.662;2022-10-26T04:30:40;4.47;;;1.77;;
21917;SDS011;11123;49.882;8.662;2022-10-26T04:33:08;9.82;;;2.30;;
21917;SDS011;11123;49.882;8.662;2022-10-26T04:35:37;6.75;;;1.77;;
21917;SDS011;11123;49.882;8.662;2022-10-26T04:38:05;7.43;;;2.05;;
21917;SDS011;11123;49.882;8.662;2022-10-26T04:40:34;8.85;;;2.35;;
21917;SDS011;11123;49.882;8.662;2022-10-26T04:43:02;7.93;;;2.25;;
21917;SDS011;11123;49.882;8.662;2022-10-26T04:45:31;5.18;;;2.30;;
21917;SDS011;11123;49.882;8.662;2022-10-26T04:48:01;5.20;;;2.40;;
21917;SDS011;11123;49.882;8.662;2022-10-26T04:50:31;13.82;;;2.90;;
21917;SDS011;11123;49.882;8.662;2022-10-26T04:53:04;7.63;;;2.60;;
21917;SDS011;11123;49.882;8.662;2022-10-26T04:55:38;9.07;;;2.85;;
21917;SDS011;11123;49.882;8.662;2022-10-26T04:58:06;11.75;;;2.95;;
21917;SDS011;11123;49.882;8.662;2022-10-26T05:00:34;8.90;;;2.63;;
21917;SDS011;11123;49.882;8.662;2022-10-26T05:03:04;7.85;;;2.95;;
21917;SDS011;11123;49.882;8.662;2022-10-26T05:05:34;9.02;;;2.53;;
21917;SDS011;11123;49.882;8.662;2022-10-26T05:08:03;12.70;;;3.80;;
21917;SDS011;11123;49.882;8.662;2022-10-26T05:10:31;7.60;;;2.65;;
21917;SDS011;11123;49.882;8.662;2022-10-26T05:13:00;7.45;;;2.58;;
21917;SDS011;11123;49.882;8.662;2022-10-26T05:15:28;10.40;;;2.75;;
21917;SDS011;11123;49.882;8.662;2022-10-26T05:17:57;6.45;;;2.53;;
21917;SDS011;11123;49.882;8.662;2022-10-26T05:20:29;9.50;;;2.55;;
21917;SDS011;11123;49.882;8.662;2022-10-26T05:22:59;7.50;;;2.38;;
21917;SDS011;11123;49.882;8.662;2022-10-26T05:25:33;4.55;;;2.30;;
21917;SDS011;11123;49.882;8.662;2022-10-26T05:28:04;8.82;;;2.40;;
21917;SDS011;11123;49.882;8.662;2022-10-26T05:30:33;9.48;;;2.40;;
21917;SDS011;11123;49.882;8.662;2022-10-26T05:33:02;7.57;;;2.47;;
21917;SDS011;11123;49.882;8.662;2022-10-26T05:35:32;6.35;;;2.72;;
21917;SDS011;11123;49.882;8.662;2022-10-26T05:38:05;11.00;;;2.78;;
21917;SDS011;11123;49.882;8.662;2022-10-26T05:40:34;9.15;;;2.53;;
21917;SDS011;11123;49.882;8.662;2022-10-26T05:43:02;7.72;;;2.50;;
21917;SDS011;11123;49.882;8.662;2022-10-26T05:45:31;7.65;;;2.70;;
21917;SDS011;11123;49.882;8.662;2022-10-26T05:47:59;8.07;;;2.55;;
21917;SDS011;11123;49.882;8.662;2022-10-26T05:50:29;5.90;;;2.47;;
21917;SDS011;11123;49.882;8.662;2022-10-26T05:52:59;8.25;;;2.40;;
21917;SDS011;11123;49.882;8.662;2022-10-26T05:55:27;7.70;;;2.65;;
21917;SDS011;11123;49.882;8.662;2022-10-26T05:57:56;6.05;;;2.58;;
21917;SDS011;11123;49.882;8.662;2022-10-26T06:00:25;6.53;;;2.60;;
21917;SDS011;11123;49.882;8.662;2022-10-26T06:03:02;6.50;;;2.53;;
21917;SDS011;11123;49.882;8.662;2022-10-26T06:05:40;5.82;;;2.53;;
21917;SDS011;11123;49.882;8.662;2022-10-26T06:08:19;6.57;;;2.08;;
21917;SDS011;11123;49.882;8.662;2022-10-26T06:10:48;8.18;;;2.53;;
21917;SDS011;11123;49.882;8.662;2022-10-26T06:13:17;12.88;;;2.65;;
21917;SDS011;11123;49.882;8.662;2022-10-26T06:15:50;6.82;;;2.30;;
21917;SDS011;11123;49.882;8.662;2022-10-26T06:18:35;4.78;;;2.05;;
21917;SDS011;11123;49.882;8.662;2022-10-26T06:21:20;9.13;;;2.63;;
21917;SDS011;11123;49.882;8.662;2022-10-26T06:24:00;5.13;;;2.10;;
21917;SDS011;11123;49.882;8.662;2022-10-26T06:26:34;7.38;;;2.75;;
21917;SDS011;11123;49.882;8.662;2022-10-26T06:29:17;6.50;;;2.60;;
21917;SDS011;11123;49.882;8.662;2022-10-26T06:31:51;8.90;;;2.85;;
21917;SDS011;11123;49.882;8.662;2022-10-26T06:34:20;11.40;;;2.83;;
21917;SDS011;11123;49.882;8.662;2022-10-26T06:36:52;6.60;;;3.13;;
21917;SDS011;11123;49.882;8.662;2022-10-26T06:39:26;10.57;;;2.90;;
21917;SDS011;11123;49.882;8.662;2022-10-26T06:41:57;9.55;;;2.97;;
21917;SDS011;11123;49.882;8.662;2022-10-26T06:44:25;10.02;;;3.05;;
21917;SDS011;11123;49.882;8.662;2022-10-26T06:46:57;7.85;;;3.30;;
21917;SDS011;11123;49.882;8.662;2022-10-26T06:49:30;7.53;;;3.25;;
21917;SDS011;11123;49.882;8.662;2022-10-26T06:52:04;8.90;;;3.25;;
21917;SDS011;11123;49.882;8.662;2022-10-26T06:54:46;7.93;;;2.83;;
21917;SDS011;11123;49.882;8.662;2022-10-26T06:57:17;9.15;;;3.25;;
21917;SDS011;11123;49.882;8.662;2022-10-26T06:59:48;12.63;;;3.47;;
21917;SDS011;11123;49.882;8.662;2022-10-26T07:02:18;9.13;;;3.30;;
21917;SDS011;11123;49.882;8.662;2022-10-26T07:04:47;10.52;;;3.88;;
21917;SDS011;11123;49.882;8.662;2022-10-26T07:07:16;8.27;;;3.38;;
21917;SDS011;11123;49.882;8.662;2022-10-26T07:09:47;7.35;;;3.50;;
21917;SDS011;11123;49.882;8.662;2022-10-26T07:12:16;11.02;;;3.90;;
21917;SDS011;11123;49.882;8.662;2022-10-26T07:14:44;10.95;;;3.67;;
21917;SDS011;11123;49.882;8.662;2022-10-26T07:17:13;7.70;;;3.20;;
21917;SDS011;11123;49.882;8.662;2022-10-26T07:19:42;9.43;;;3.15;;
21917;SDS011;11123;49.882;8.662;2022-10-26T07:22:11;7.40;;;3.30;;
21917;SDS011;11123;49.882;8.662;2022-10-26T07:24:39;8.98;;;3.20;;
21917;SDS011;11123;49.882;8.662;2022-10-26T07:27:09;13.15;;;3.33;;
21917;SDS011;11123;49.882;8.662;2022-10-26T07:29:40;13.45;;;3.50;;
21917;SDS011;11123;49.882;8.662;2022-10-26T07:32:08;8.45;;;3.28;;
21917;SDS011;11123;49.882;8.662;2022-10-26T07:34:36;6.20;;;3.17;;
21917;SDS011;11123;49.882;8.662;2022-10-26T07:37:04;8.73;;;3.10;;
21917;SDS011;11123;49.882;8.662;2022-10-26T07:39:32;11.82;;;3.00;;
21917;SDS011;11123;49.882;8.662;2022-10-26T07:42:00;6.90;;;2.80;;
21917;SDS011;11123;49.882;8.662;2022-10-26T07:44:30;7.15;;;3.30;;
21917;SDS011;11123;49.882;8.662;2022-10-26T07:46:58;10.60;;;3.58;;
21917;SDS011;11123;49.882;8.662;2022-10-26T07:49:26;7.50;;;2.90;;
21917;SDS011;11123;49.882;8.662;2022-10-26T07:51:55;9.85;;;2.80;;
21917;SDS011;11123;49.882;8.662;2022-10-26T07:54:23;5.50;;;2.35;;
21917;SDS011;11123;49.882;8.662;2022-10-26T07:56:51;8.13;;;2.47;;
21917;SDS011;11123;49.882;8.662;2022-10-26T07:59:20;7.80;;;3.00;;
21917;SDS011;11123;49.882;8.662;2022-10-26T08:01:49;8.20;;;2.97;;
21917;SDS011;11123;49.882;8.662;2022-10-26T08:04:17;12.27;;;3.30;;
21917;SDS011;11123;49.882;8.662;2022-10-26T08:06:46;8.77;;;3.03;;
21917;SDS011;11123;49.882;8.662;2022-10-26T08:09:14;12.65;;;3.00;;
21917;SDS011;11123;49.882;8.662;2022-10-26T08:11:42;14.40;;;3.55;;
21917;SDS011;11123;49.882;8.662;2022-10-26T08:14:11;9.05;;;3.30;;
21917;SDS011;11123;49.882;8.662;2022-10-26T08:16:39;19.23;;;3.50;;
21917;SDS011;11123;49.882;8.662;2022-10-26T08:19:09;9.43;;;2.92;;
21917;SDS011;11123;49.882;8.662;2022-10-26T08:21:37;11.75;;;2.70;;
21917;SDS011;11123;49.882;8.662;2022-10-26T08:24:06;10.95;;;2.63;;
21917;SDS011;11123;49.882;8.662;2022-10-26T08:26:35;9.10;;;2.70;;
21917;SDS011;11123;49.882;8.662;2022-10-26T08:29:03;6.30;;;2.53;;
21917;SDS011;11123;49.882;8.662;2022-10-26T08:31:31;8.45;;;2.60;;
21917;SDS011;11123;49.882;8.662;2022-10-26T08:34:00;7.53;;;2.30;;
21917;SDS011;11123;49.882;8.662;2022-10-26T08:36:31;8.75;;;2.60;;
21917;SDS011;11123;49.882;8.662;2022-10-26T08:38:59;7.72;;;2.47;;
21917;SDS011;11123;49.882;8.662;2022-10-26T08:41:40;7.78;;;2.97;;
21917;SDS011;11123;49.882;8.662;2022-10-26T08:44:19;6.47;;;3.03;;
21917;SDS011;11123;49.882;8.662;2022-10-26T08:46:52;5.88;;;2.38;;
21917;SDS011;11123;49.882;8.662;2022-10-26T08:49:28;5.50;;;2.30;;
21917;SDS011;11123;49.882;8.662;2022-10-26T08:52:10;4.85;;;2.00;;
21917;SDS011;11123;49.882;8.662;2022-10-26T08:54:43;7.30;;;2.13;;
21917;SDS011;11123;49.882;8.662;2022-10-26T08:57:17;8.75;;;2.00;;
21917;SDS011;11123;49.882;8.662;2022-10-26T08:59:54;8.23;;;2.08;;
21917;SDS011;11123;49.882;8.662;2022-10-26T09:02:26;7.55;;;1.98;;
21917;SDS011;11123;49.882;8.662;2022-10-26T09:04:56;5.07;;;1.95;;
21917;SDS011;11123;49.882;8.662;2022-10-26T09:07:31;5.50;;;1.90;;
21917;SDS011;11123;49.882;8.662;2022-10-26T09:10:12;9.32;;;2.30;;
21917;SDS011;11123;49.882;8.662;2022-10-26T09:12:53;5.00;;;1.95;;
21917;SDS011;11123;49.882;8.662;2022-10-26T09:15:28;5.20;;;2.00;;
21917;SDS011;11123;49.882;8.662;2022-10-26T09:18:08;6.32;;;2.08;;
21917;SDS011;11123;49.882;8.662;2022-10-26T09:20:48;6.53;;;1.92;;
21917;SDS011;11123;49.882;8.662;2022-10-26T09:23:39;5.35;;;1.75;;
21917;SDS011;11123;49.882;8.662;2022-10-26T09:26:30;6.43;;;2.20;;
21917;SDS011;11123;49.882;8.662;2022-10-26T09:29:02;6.75;;;2.05;;
21917;SDS011;11123;49.882;8.662;2022-10-26T09:31:36;5.45;;;1.80;;
21917;SDS011;11123;49.882;8.662;2022-10-26T09:34:15;9.15;;;2.20;;
21917;SDS011;11123;49.882;8.662;2022-10-26T09:36:52;9.88;;;1.95;;
21917;SDS011;11123;49.882;8.662;2022-10-26T09:39:27;12.75;;;2.00;;
21917;SDS011;11123;49.882;8.662;2022-10-26T09:42:05;10.35;;;2.25;;
21917;SDS011;11123;49.882;8.662;2022-10-26T09:44:43;6.20;;;2.10;;
21917;SDS011;11123;49.882;8.662;2022-10-26T09:47:21;4.60;;;1.80;;
21917;SDS011;11123;49.882;8.662;2022-10-26T09:50:01;5.20;;;1.90;;
21917;SDS011;11123;49.882;8.662;2022-10-26T09:52:34;7.57;;;1.83;;
21917;SDS011;11123;49.882;8.662;2022-10-26T09:55:04;6.53;;;1.85;;
21917;SDS011;11123;49.882;8.662;2022-10-26T09:57:33;7.13;;;2.10;;
21917;SDS011;11123;49.882;8.662;2022-10-26T10:00:02;5.80;;;1.90;;
21917;SDS011;11123;49.882;8.662;2022-10-26T10:02:35;6.07;;;2.72;;
21917;SDS011;11123;49.882;8.662;2022-10-26T10:05:19;7.20;;;2.53;;
21917;SDS011;11123;49.882;8.662;2022-10-26T10:08:13;7.50;;;2.05;;
21917;SDS011;11123;49.882;8.662;2022-10-26T10:10:55;6.78;;;2.78;;
21917;SDS011;11123;49.882;8.662;2022-10-26T10:13:28;6.72;;;1.63;;
21917;SDS011;11123;49.882;8.662;2022-10-26T10:16:09;4.90;;;1.80;;
21917;SDS011;11123;49.882;8.662;2022-10-26T10:18:39;4.45;;;1.63;;
21917;SDS011;11123;49.882;8.662;2022-10-26T10:21:08;8.07;;;2.08;;
21917;SDS011;11123;49.882;8.662;2022-10-26T10:23:46;6.43;;;1.90;;
21917;SDS011;11123;49.882;8.662;2022-10-26T10:26:18;6.25;;;2.28;;
21917;SDS011;11123;49.882;8.662;2022-10-26T10:28:55;6.28;;;1.63;;
21917;SDS011;11123;49.882;8.662;2022-10-26T10:31:28;7.15;;;1.70;;
21917;SDS011;11123;49.882;8.662;2022-10-26T10:33:57;5.40;;;1.83;;
21917;SDS011;11123;49.882;8.662;2022-10-26T10:36:26;5.43;;;2.00;;
21917;SDS011;11123;49.882;8.662;2022-10-26T10:38:57;8.60;;;2.30;;
21917;SDS011;11123;49.882;8.662;2022-10-26T10:41:28;9.13;;;1.70;;
21917;SDS011;11123;49.882;8.662;2022-10-26T10:44:04;5.90;;;1.70;;
21917;SDS011;11123;49.882;8.662;2022-10-26T10:46:34;8.65;;;1.90;;
21917;SDS011;11123;49.882;8.662;2022-10-26T10:49:04;6.28;;;1.67;;
21917;SDS011;11123;49.882;8.662;2022-10-26T10:51:43;5.38;;;2.00;;
21917;SDS011;11123;49.882;8.662;2022-10-26T10:54:16;5.57;;;1.85;;
21917;SDS011;11123;49.882;8.662;2022-10-26T10:56:52;6.57;;;1.90;;
21917;SDS011;11123;49.882;8.662;2022-10-26T10:59:29;6.35;;;1.85;;
21917;SDS011;11123;49.882;8.662;2022-10-26T11:02:19;8.70;;;1.65;;
21917;SDS011;11123;49.882;8.662;2022-10-26T11:05:04;7.80;;;1.88;;
21917;SDS011;11123;49.882;8.662;2022-10-26T11:07:53;4.95;;;1.77;;
21917;SDS011;11123;49.882;8.662;2022-10-26T11:10:25;6.53;;;2.03;;
21917;SDS011;11123;49.882;8.662;2022-10-26T11:12:58;7.43;;;2.10;;
21917;SDS011;11123;49.882;8.662;2022-10-26T11:15:30;7.10;;;2.00;;
21917;SDS011;11123;49.882;8.662;2022-10-26T11:18:02;8.35;;;2.05;;
21917;SDS011;11123;49.882;8.662;2022-10-26T11:20:37;6.93;;;2.20;;
21917;SDS011;11123;49.882;8.662;2022-10-26T11:23:10;4.95;;;1.80;;
21917;SDS011;11123;49.882;8.662;2022-10-26T11:25:46;9.32;;;2.13;;
21917;SDS011;11123;49.882;8.662;2022-10-26T11:28:22;8.82;;;2.13;;
21917;SDS011;11123;49.882;8.662;2022-10-26T11:31:00;9.35;;;2.50;;
21917;SDS011;11123;49.882;8.662;2022-10-26T11:33:33;9.32;;;2.20;;
21917;SDS011;11123;49.882;8.662;2022-10-26T11:36:07;6.15;;;2.13;;
21917;SDS011;11123;49.882;8.662;2022-10-26T11:38:46;12.20;;;1.98;;
21917;SDS011;11123;49.882;8.662;2022-10-26T11:41:24;7.60;;;2.10;;
21917;SDS011;11123;49.882;8.662;2022-10-26T11:44:00;7.30;;;2.15;;
21917;SDS011;11123;49.882;8.662;2022-10-26T11:46:34;6.90;;;2.30;;
21917;SDS011;11123;49.882;8.662;2022-10-26T11:49:09;5.70;;;1.98;;
21917;SDS011;11123;49.882;8.662;2022-10-26T11:51:42;4.55;;;1.75;;
21917;SDS011;11123;49.882;8.662;2022-10-26T11:54:18;7.95;;;2.00;;
21917;SDS011;11123;49.882;8.662;2022-10-26T11:56:51;11.93;;;2.60;;
21917;SDS011;11123;49.882;8.662;2022-10-26T11:59:24;5.68;;;2.20;;
21917;SDS011;11123;49.882;8.662;2022-10-26T12:01:59;7.05;;;2.13;;
21917;SDS011;11123;49.882;8.662;2022-10-26T12:04:47;11.82;;;2.65;;
21917;SDS011;11123;49.882;8.662;2022-10-26T12:07:22;5.80;;;2.05;;
21917;SDS011;11123;49.882;8.662;2022-10-26T12:09:53;6.95;;;2.40;;
21917;SDS011;11123;49.882;8.662;2022-10-26T12:12:25;8.55;;;2.15;;
21917;SDS011;11123;49.882;8.662;2022-10-26T12:15:08;5.47;;;1.58;;
21917;SDS011;11123;49.882;8.662;2022-10-26T12:17:46;4.90;;;1.85;;
21917;SDS011;11123;49.882;8.662;2022-10-26T12:20:34;7.72;;;1.70;;
21917;SDS011;11123;49.882;8.662;2022-10-26T12:23:19;7.95;;;1.85;;
21917;SDS011;11123;49.882;8.662;2022-10-26T12:29:12;5.50;;;1.60;;
21917;SDS011;11123;49.882;8.662;2022-10-26T12:31:57;6.88;;;1.90;;
21917;SDS011;11123;49.882;8.662;2022-10-26T12:37:31;6.93;;;1.85;;
21917;SDS011;11123;49.882;8.662;2022-10-26T12:52:33;7.22;;;2.30;;
21917;SDS011;11123;49.882;8.662;2022-10-26T12:58:14;7.03;;;1.95;;
21917;SDS011;11123;49.882;8.662;2022-10-26T13:01:24;7.47;;;2.13;;
21917;SDS011;11123;49.882;8.662;2022-10-26T13:04:17;8.80;;;2.03;;
21917;SDS011;11123;49.882;8.662;2022-10-26T13:07:04;6.47;;;1.90;;
21917;SDS011;11123;49.882;8.662;2022-10-26T13:09:45;7.88;;;2.20;;
21917;SDS011;11123;49.882;8.662;2022-10-26T13:12:33;7.10;;;2.22;;
21917;SDS011;11123;49.882;8.662;2022-10-26T13:15:17;8.73;;;2.10;;
21917;SDS011;11123;49.882;8.662;2022-10-26T13:17:51;8.20;;;1.92;;
21917;SDS011;11123;49.882;8.662;2022-10-26T13:20:23;6.80;;;2.00;;
21917;SDS011;11123;49.882;8.662;2022-10-26T13:22:53;8.57;;;2.08;;
21917;SDS011;11123;49.882;8.662;2022-10-26T13:25:23;6.32;;;2.08;;
21917;SDS011;11123;49.882;8.662;2022-10-26T13:28:01;8.77;;;2.10;;
21917;SDS011;11123;49.882;8.662;2022-10-26T13:30:42;8.82;;;2.05;;
21917;SDS011;11123;49.882;8.662;2022-10-26T13:33:25;7.82;;;1.83;;
21917;SDS011;11123;49.882;8.662;2022-10-26T13:36:01;6.47;;;2.00;;
21917;SDS011;11123;49.882;8.662;2022-10-26T13:38:42;12.48;;;2.35;;
21917;SDS011;11123;49.882;8.662;2022-10-26T13:41:24;7.70;;;2.22;;
21917;SDS011;11123;49.882;8.662;2022-10-26T13:43:58;6.20;;;1.98;;
21917;SDS011;11123;49.882;8.662;2022-10-26T13:46:37;5.40;;;1.70;;
21917;SDS011;11123;49.882;8.662;2022-10-26T13:49:16;5.40;;;1.70;;
21917;SDS011;11123;49.882;8.662;2022-10-26T13:51:49;15.70;;;2.10;;
21917;SDS011;11123;49.882;8.662;2022-10-26T13:54:20;7.90;;;2.10;;
21917;SDS011;11123;49.882;8.662;2022-10-26T13:57:00;7.13;;;1.77;;
21917;SDS011;11123;49.882;8.662;2022-10-26T13:59:37;6.50;;;1.85;;
21917;SDS011;11123;49.882;8.662;2022-10-26T14:02:14;7.53;;;1.90;;
21917;SDS011;11123;49.882;8.662;2022-10-26T14:04:51;6.90;;;1.60;;
21917;SDS011;11123;49.882;8.662;2022-10-26T14:07:22;4.20;;;1.65;;
21917;SDS011;11123;49.882;8.662;2022-10-26T14:09:53;5.90;;;1.70;;
21917;SDS011;11123;49.882;8.662;2022-10-26T14:12:24;6.60;;;1.83;;
21917;SDS011;11123;49.882;8.662;2022-10-26T14:14:56;5.47;;;1.50;;
21917;SDS011;11123;49.882;8.662;2022-10-26T14:17:30;5.97;;;1.80;;
21917;SDS011;11123;49.882;8.662;2022-10-26T14:19:59;6.43;;;1.60;;
21917;SDS011;11123;49.882;8.662;2022-10-26T14:22:29;5.18;;;1.80;;
21917;SDS011;11123;49.882;8.662;2022-10-26T14:24:58;5.82;;;1.63;;
21917;SDS011;11123;49.882;8.662;2022-10-26T14:27:31;7.38;;;1.80;;
21917;SDS011;11123;49.882;8.662;2022-10-26T14:30:19;6.20;;;1.83;;
21917;SDS011;11123;49.882;8.662;2022-10-26T14:32:49;8.38;;;2.15;;
21917;SDS011;11123;49.882;8.662;2022-10-26T14:35:20;7.00;;;2.47;;
21917;SDS011;11123;49.882;8.662;2022-10-26T14:37:51;7.18;;;2.40;;
21917;SDS011;11123;49.882;8.662;2022-10-26T14:40:22;10.02;;;2.13;;
21917;SDS011;11123;49.882;8.662;2022-10-26T14:42:56;5.45;;;1.67;;
21917;SDS011;11123;49.882;8.662;2022-10-26T14:45:27;7.93;;;1.75;;
21917;SDS011;11123;49.882;8.662;2022-10-26T14:48:22;7.85;;;2.08;;
21917;SDS011;11123;49.882;8.662;2022-10-26T14:51:00;4.93;;;1.65;;
21917;SDS011;11123;49.882;8.662;2022-10-26T14:53:34;10.65;;;2.20;;
21917;SDS011;11123;49.882;8.662;2022-10-26T14:56:05;11.32;;;2.67;;
21917;SDS011;11123;49.882;8.662;2022-10-26T14:58:46;9.05;;;2.20;;
21917;SDS011;11123;49.882;8.662;2022-10-26T15:01:25;7.35;;;1.92;;
21917;SDS011;11123;49.882;8.662;2022-10-26T15:04:01;5.78;;;1.95;;
21917;SDS011;11123;49.882;8.662;2022-10-26T15:06:32;8.00;;;2.78;;
21917;SDS011;11123;49.882;8.662;2022-10-26T15:09:05;10.35;;;2.30;;
21917;SDS011;11123;49.882;8.662;2022-10-26T15:11:54;9.07;;;2.53;;
21917;SDS011;11123;49.882;8.662;2022-10-26T15:14:24;4.93;;;2.05;;
21917;SDS011;11123;49.882;8.662;2022-10-26T15:16:54;6.03;;;1.92;;
21917;SDS011;11123;49.882;8.662;2022-10-26T15:19:24;9.18;;;2.30;;
21917;SDS011;11123;49.882;8.662;2022-10-26T15:21:55;7.20;;;2.30;;
21917;SDS011;11123;49.882;8.662;2022-10-26T15:24:28;5.88;;;2.75;;
21917;SDS011;11123;49.882;8.662;2022-10-26T15:27:10;6.90;;;2.78;;
21917;SDS011;11123;49.882;8.662;2022-10-26T15:29:42;7.68;;;2.35;;
21917;SDS011;11123;49.882;8.662;2022-10-26T15:32:19;8.05;;;2.42;;
21917;SDS011;11123;49.882;8.662;2022-10-26T15:35:12;10.45;;;2.97;;
21917;SDS011;11123;49.882;8.662;2022-10-26T15:37:45;5.50;;;2.20;;
21917;SDS011;11123;49.882;8.662;2022-10-26T15:40:14;6.57;;;2.97;;
21917;SDS011;11123;49.882;8.662;2022-10-26T15:42:43;7.90;;;2.20;;
21917;SDS011;11123;49.882;8.662;2022-10-26T15:45:17;6.75;;;2.83;;
21917;SDS011;11123;49.882;8.662;2022-10-26T15:47:49;7.93;;;2.75;;
21917;SDS011;11123;49.882;8.662;2022-10-26T15:50:19;9.38;;;2.67;;